sensor_id;sensor_type;location;lat;lon;timestamp;temperature;humidity
30534;DHT22;17318;52.390;9.754;2022-11-15T00:01:37;10.00;99.90
30534;DHT22;17318;52.390;9.754;2022-11-15T00:04:04;10.00;99.90
30534;DHT22;17318;52.390;9.754;2022-11-15T00:06:30;9.90;99.90
30534;DHT22;17318;52.390;9.754;2022-11-15T00:08:58;9.90;99.90
30534;DHT22;17318;52.390;9.754;2022-11-15T00:11:24;10.00;99.90
30534;DHT22;17318;52.390;9.754;2022-11-15T00:13:50;10.00;99.90
30534;DHT22;17318;52.390;9.754;2022-11-15T00:16:16;10.00;99.90
30534;DHT22;17318;52.390;9.754;2022-11-15T00:18:41;10.00;99.90
30534;DHT22;17318;52.390;9.754;2022-11-15T00:21:12;10.00;99.90
30534;DHT22;17318;52.390;9.754;2022-11-15T00:23:37;10.00;99.90
30534;DHT22;17318;52.390;9.754;2022-11-15T00:26:04;10.10;99.90
30534;DHT22;17318;52.390;9.754;2022-11-15T00:28:29;10.10;99.90
30534;DHT22;17318;52.390;9.754;2022-11-15T00:31:06;10.00;99.90
30534;DHT22;17318;52.390;9.754;2022-11-15T00:33:32;10.00;99.90
30534;DHT22;17318;52.390;9.754;2022-11-15T00:36:06;10.10;99.90
30534;DHT22;17318;52.390;9.754;2022-11-15T00:38:35;10.10;99.90
30534;DHT22;17318;52.390;9.754;2022-11-15T00:41:03;10.20;99.90
30534;DHT22;17318;52.390;9.754;2022-11-15T00:43:29;10.20;99.90
30534;DHT22;17318;52.390;9.754;2022-11-15T00:45:54;10.20;99.90
30534;DHT22;17318;52.390;9.754;2022-11-15T00:48:21;10.20;99.90
30534;DHT22;17318;52.390;9.754;2022-11-15T00:50:47;10.30;99.90
30534;DHT22;17318;52.390;9.754;2022-11-15T00:53:13;10.30;99.90
30534;DHT22;17318;52.390;9.754;2022-11-15T00:55:39;10.30;99.90
30534;DHT22;17318;52.390;9.754;2022-11-15T00:58:05;10.30;99.90
30534;DHT22;17318;52.390;9.754;2022-11-15T01:00:30;10.30;99.90
30534;DHT22;17318;52.390;9.754;2022-11-15T01:02:56;10.40;99.90
30534;DHT22;17318;52.390;9.754;2022-11-15T01:05:22;10.40;99.90
30534;DHT22;17318;52.390;9.754;2022-11-15T01:07:54;10.30;99.90
30534;DHT22;17318;52.390;9.754;2022-11-15T01:10:21;10.40;99.90
30534;DHT22;17318;52.390;9.754;2022-11-15T01:12:47;10.40;99.90
30534;DHT22;17318;52.390;9.754;2022-11-15T01:15:12;10.50;99.90
30534;DHT22;17318;52.390;9.754;2022-11-15T01:17:38;10.50;99.90
30534;DHT22;17318;52.390;9.754;2022-11-15T01:20:04;10.60;99.90
30534;DHT22;17318;52.390;9.754;2022-11-15T01:22:30;10.50;99.90
30534;DHT22;17318;52.390;9.754;2022-11-15T01:24:56;10.60;99.90
30534;DHT22;17318;52.390;9.754;2022-11-15T01:27:22;10.60;99.90
30534;DHT22;17318;52.390;9.754;2022-11-15T01:29:47;10.60;99.90
30534;DHT22;17318;52.390;9.754;2022-11-15T01:32:13;10.70;99.90
30534;DHT22;17318;52.390;9.754;2022-11-15T01:34:39;10.70;99.90
30534;DHT22;17318;52.390;9.754;2022-11-15T01:37:04;10.70;99.90
30534;DHT22;17318;52.390;9.754;2022-11-15T01:39:30;10.70;99.90
30534;DHT22;17318;52.390;9.754;2022-11-15T01:41:55;10.70;99.90
30534;DHT22;17318;52.390;9.754;2022-11-15T01:47:06;10.60;99.90
30534;DHT22;17318;52.390;9.754;2022-11-15T01:49:35;10.50;99.90
30534;DHT22;17318;52.390;9.754;2022-11-15T01:52:03;10.40;99.90
30534;DHT22;17318;52.390;9.754;2022-11-15T01:54:29;10.40;99.90
30534;DHT22;17318;52.390;9.754;2022-11-15T01:57:02;10.30;99.90
30534;DHT22;17318;52.390;9.754;2022-11-15T01:59:29;10.30;99.90
30534;DHT22;17318;52.390;9.754;2022-11-15T02:01:55;10.20;99.90
30534;DHT22;17318;52.390;9.754;2022-11-15T02:04:30;10.20;99.90
30534;DHT22;17318;52.390;9.754;2022-11-15T02:06:56;10.20;99.90
30534;DHT22;17318;52.390;9.754;2022-11-15T02:09:22;10.20;99.90
30534;DHT22;17318;52.390;9.754;2022-11-15T02:11:50;10.20;99.90
30534;DHT22;17318;52.390;9.754;2022-11-15T02:14:16;10.20;99.90
30534;DHT22;17318;52.390;9.754;2022-11-15T02:19:47;10.20;99.90
30534;DHT22;17318;52.390;9.754;2022-11-15T02:25:09;10.20;99.90
30534;DHT22;17318;52.390;9.754;2022-11-15T02:28:06;10.30;99.90
30534;DHT22;17318;52.390;9.754;2022-11-15T02:36:15;10.40;99.90
30534;DHT22;17318;52.390;9.754;2022-11-15T02:41:35;10.50;99.90
30534;DHT22;17318;52.390;9.754;2022-11-15T02:44:08;10.50;99.90
30534;DHT22;17318;52.390;9.754;2022-11-15T02:46:43;10.40;99.90
30534;DHT22;17318;52.390;9.754;2022-11-15T02:49:32;10.40;99.90
30534;DHT22;17318;52.390;9.754;2022-11-15T02:51:58;10.40;99.90
30534;DHT22;17318;52.390;9.754;2022-11-15T02:54:28;10.40;99.90
30534;DHT22;17318;52.390;9.754;2022-11-15T02:56:58;10.40;99.90
30534;DHT22;17318;52.390;9.754;2022-11-15T03:08:06;10.40;99.90
30534;DHT22;17318;52.390;9.754;2022-11-15T03:13:27;10.30;99.90
30534;DHT22;17318;52.390;9.754;2022-11-15T03:16:14;10.30;99.90
30534;DHT22;17318;52.390;9.754;2022-11-15T03:18:45;10.30;99.90
30534;DHT22;17318;52.390;9.754;2022-11-15T03:21:14;10.30;99.90
30534;DHT22;17318;52.390;9.754;2022-11-15T03:23:41;10.40;99.90
30534;DHT22;17318;52.390;9.754;2022-11-15T03:26:10;10.50;99.90
30534;DHT22;17318;52.390;9.754;2022-11-15T03:28:41;10.40;99.90
30534;DHT22;17318;52.390;9.754;2022-11-15T03:31:10;10.50;99.90
30534;DHT22;17318;52.390;9.754;2022-11-15T03:33:57;10.60;99.90
30534;DHT22;17318;52.390;9.754;2022-11-15T03:36:25;10.60;99.90
30534;DHT22;17318;52.390;9.754;2022-11-15T03:38:54;10.70;99.90
30534;DHT22;17318;52.390;9.754;2022-11-15T03:41:29;10.80;99.90
30534;DHT22;17318;52.390;9.754;2022-11-15T03:44:11;10.90;99.90
30534;DHT22;17318;52.390;9.754;2022-11-15T03:46:55;11.00;99.90
30534;DHT22;17318;52.390;9.754;2022-11-15T03:49:28;11.10;99.90
30534;DHT22;17318;52.390;9.754;2022-11-15T03:51:57;11.20;99.90
30534;DHT22;17318;52.390;9.754;2022-11-15T03:54:23;11.30;99.90
30534;DHT22;17318;52.390;9.754;2022-11-15T03:56:49;11.30;99.90
30534;DHT22;17318;52.390;9.754;2022-11-15T03:59:15;11.40;99.90
30534;DHT22;17318;52.390;9.754;2022-11-15T04:01:41;11.50;99.90
30534;DHT22;17318;52.390;9.754;2022-11-15T04:04:06;11.50;99.90
30534;DHT22;17318;52.390;9.754;2022-11-15T04:06:32;11.60;99.90
30534;DHT22;17318;52.390;9.754;2022-11-15T04:08:58;11.60;99.90
30534;DHT22;17318;52.390;9.754;2022-11-15T04:11:23;11.60;99.90
30534;DHT22;17318;52.390;9.754;2022-11-15T04:13:49;11.60;99.90
30534;DHT22;17318;52.390;9.754;2022-11-15T04:16:18;11.60;99.90
30534;DHT22;17318;52.390;9.754;2022-11-15T04:18:43;11.60;99.90
30534;DHT22;17318;52.390;9.754;2022-11-15T04:21:09;11.60;99.90
30534;DHT22;17318;52.390;9.754;2022-11-15T04:23:53;11.60;99.90
30534;DHT22;17318;52.390;9.754;2022-11-15T04:26:37;11.60;99.90
30534;DHT22;17318;52.390;9.754;2022-11-15T04:29:03;11.70;99.90
30534;DHT22;17318;52.390;9.754;2022-11-15T04:31:47;11.70;99.90
30534;DHT22;17318;52.390;9.754;2022-11-15T04:34:13;11.70;99.90
30534;DHT22;17318;52.390;9.754;2022-11-15T04:36:39;11.70;99.90
30534;DHT22;17318;52.390;9.754;2022-11-15T04:39:23;11.70;99.90
30534;DHT22;17318;52.390;9.754;2022-11-15T04:41:49;11.70;99.90
30534;DHT22;17318;52.390;9.754;2022-11-15T04:44:15;11.80;99.90
30534;DHT22;17318;52.390;9.754;2022-11-15T04:46:41;11.80;99.90
30534;DHT22;17318;52.390;9.754;2022-11-15T04:49:07;11.80;99.90
30534;DHT22;17318;52.390;9.754;2022-11-15T04:51:33;11.80;99.90
30534;DHT22;17318;52.390;9.754;2022-11-15T04:53:59;11.80;99.90
30534;DHT22;17318;52.390;9.754;2022-11-15T04:56:24;11.90;99.90
30534;DHT22;17318;52.390;9.754;2022-11-15T04:58:50;11.90;99.90
30534;DHT22;17318;52.390;9.754;2022-11-15T05:01:16;12.00;99.90
30534;DHT22;17318;52.390;9.754;2022-11-15T05:03:43;12.00;99.90
30534;DHT22;17318;52.390;9.754;2022-11-15T05:06:27;12.00;99.90
30534;DHT22;17318;52.390;9.754;2022-11-15T05:08:53;12.10;99.90
30534;DHT22;17318;52.390;9.754;2022-11-15T05:11:19;12.10;99.90
30534;DHT22;17318;52.390;9.754;2022-11-15T05:13:46;12.20;99.90
30534;DHT22;17318;52.390;9.754;2022-11-15T05:16:12;12.30;99.90
30534;DHT22;17318;52.390;9.754;2022-11-15T05:18:37;12.30;99.90
30534;DHT22;17318;52.390;9.754;2022-11-15T05:21:14;12.30;99.90
30534;DHT22;17318;52.390;9.754;2022-11-15T05:23:40;12.30;99.90
30534;DHT22;17318;52.390;9.754;2022-11-15T05:26:07;12.30;99.90
30534;DHT22;17318;52.390;9.754;2022-11-15T05:28:33;12.40;99.90
30534;DHT22;17318;52.390;9.754;2022-11-15T05:31:01;12.40;99.90
30534;DHT22;17318;52.390;9.754;2022-11-15T05:33:27;12.40;99.90
30534;DHT22;17318;52.390;9.754;2022-11-15T05:36:02;12.40;99.90
30534;DHT22;17318;52.390;9.754;2022-11-15T05:38:29;12.40;99.90
30534;DHT22;17318;52.390;9.754;2022-11-15T05:40:55;12.50;99.90
30534;DHT22;17318;52.390;9.754;2022-11-15T05:43:21;12.40;99.90
30534;DHT22;17318;52.390;9.754;2022-11-15T05:45:47;12.50;99.90
30534;DHT22;17318;52.390;9.754;2022-11-15T05:48:13;12.50;99.90
30534;DHT22;17318;52.390;9.754;2022-11-15T05:50:42;12.50;99.90
30534;DHT22;17318;52.390;9.754;2022-11-15T05:53:11;12.50;99.90
30534;DHT22;17318;52.390;9.754;2022-11-15T05:55:39;12.50;99.90
30534;DHT22;17318;52.390;9.754;2022-11-15T05:58:04;12.50;99.90
30534;DHT22;17318;52.390;9.754;2022-11-15T06:00:30;12.50;99.90
30534;DHT22;17318;52.390;9.754;2022-11-15T06:02:56;12.50;99.90
30534;DHT22;17318;52.390;9.754;2022-11-15T06:05:22;12.50;99.90
30534;DHT22;17318;52.390;9.754;2022-11-15T06:07:47;12.50;99.90
30534;DHT22;17318;52.390;9.754;2022-11-15T06:10:13;12.50;99.90
30534;DHT22;17318;52.390;9.754;2022-11-15T06:12:38;12.50;99.90
30534;DHT22;17318;52.390;9.754;2022-11-15T06:15:04;12.50;99.90
30534;DHT22;17318;52.390;9.754;2022-11-15T06:17:30;12.50;99.90
30534;DHT22;17318;52.390;9.754;2022-11-15T06:19:56;12.50;99.90
30534;DHT22;17318;52.390;9.754;2022-11-15T06:22:21;12.40;99.90
30534;DHT22;17318;52.390;9.754;2022-11-15T06:24:47;12.40;99.90
30534;DHT22;17318;52.390;9.754;2022-11-15T06:27:13;12.40;99.90
30534;DHT22;17318;52.390;9.754;2022-11-15T06:29:39;12.40;99.90
30534;DHT22;17318;52.390;9.754;2022-11-15T06:32:05;12.30;99.90
30534;DHT22;17318;52.390;9.754;2022-11-15T06:34:30;12.30;99.90
30534;DHT22;17318;52.390;9.754;2022-11-15T06:36:56;12.30;99.90
30534;DHT22;17318;52.390;9.754;2022-11-15T06:39:21;12.30;99.90
30534;DHT22;17318;52.390;9.754;2022-11-15T06:41:47;12.30;99.90
30534;DHT22;17318;52.390;9.754;2022-11-15T06:44:13;12.20;99.90
30534;DHT22;17318;52.390;9.754;2022-11-15T06:46:38;12.20;99.90
30534;DHT22;17318;52.390;9.754;2022-11-15T06:49:04;12.10;99.90
30534;DHT22;17318;52.390;9.754;2022-11-15T06:51:30;12.10;99.90
30534;DHT22;17318;52.390;9.754;2022-11-15T06:53:55;12.10;99.90
30534;DHT22;17318;52.390;9.754;2022-11-15T06:56:21;12.00;99.90
30534;DHT22;17318;52.390;9.754;2022-11-15T06:58:46;12.00;99.90
30534;DHT22;17318;52.390;9.754;2022-11-15T07:01:13;12.00;99.90
30534;DHT22;17318;52.390;9.754;2022-11-15T07:03:40;12.00;99.90
30534;DHT22;17318;52.390;9.754;2022-11-15T07:06:07;12.00;99.90
30534;DHT22;17318;52.390;9.754;2022-11-15T07:08:34;11.90;99.90
30534;DHT22;17318;52.390;9.754;2022-11-15T07:11:02;12.00;99.90
30534;DHT22;17318;52.390;9.754;2022-11-15T07:13:30;12.00;99.90
30534;DHT22;17318;52.390;9.754;2022-11-15T07:16:01;12.00;99.90
30534;DHT22;17318;52.390;9.754;2022-11-15T07:18:27;12.00;99.90
30534;DHT22;17318;52.390;9.754;2022-11-15T07:20:53;12.00;99.90
30534;DHT22;17318;52.390;9.754;2022-11-15T07:23:19;12.00;99.90
30534;DHT22;17318;52.390;9.754;2022-11-15T07:25:44;12.00;99.90
30534;DHT22;17318;52.390;9.754;2022-11-15T07:28:10;12.00;99.90
30534;DHT22;17318;52.390;9.754;2022-11-15T07:30:35;12.00;99.90
30534;DHT22;17318;52.390;9.754;2022-11-15T07:33:01;12.00;99.90
30534;DHT22;17318;52.390;9.754;2022-11-15T07:35:28;12.00;99.90
30534;DHT22;17318;52.390;9.754;2022-11-15T07:38:00;12.00;99.90
30534;DHT22;17318;52.390;9.754;2022-11-15T07:40:27;12.00;99.90
30534;DHT22;17318;52.390;9.754;2022-11-15T07:43:02;12.00;99.90
30534;DHT22;17318;52.390;9.754;2022-11-15T07:45:29;12.10;99.90
30534;DHT22;17318;52.390;9.754;2022-11-15T07:47:55;12.10;99.90
30534;DHT22;17318;52.390;9.754;2022-11-15T07:50:26;12.00;99.90
30534;DHT22;17318;52.390;9.754;2022-11-15T07:52:59;12.10;99.90
30534;DHT22;17318;52.390;9.754;2022-11-15T07:55:26;12.10;99.90
30534;DHT22;17318;52.390;9.754;2022-11-15T07:57:53;12.10;99.90
30534;DHT22;17318;52.390;9.754;2022-11-15T08:00:25;12.10;99.90
30534;DHT22;17318;52.390;9.754;2022-11-15T08:02:50;12.10;99.90
30534;DHT22;17318;52.390;9.754;2022-11-15T08:05:16;12.10;99.90
30534;DHT22;17318;52.390;9.754;2022-11-15T08:07:42;12.10;99.90
30534;DHT22;17318;52.390;9.754;2022-11-15T08:10:08;12.10;99.90
30534;DHT22;17318;52.390;9.754;2022-11-15T08:12:33;12.20;99.90
30534;DHT22;17318;52.390;9.754;2022-11-15T08:14:59;12.20;99.90
30534;DHT22;17318;52.390;9.754;2022-11-15T08:17:25;12.30;99.90
30534;DHT22;17318;52.390;9.754;2022-11-15T08:19:51;12.30;99.90
30534;DHT22;17318;52.390;9.754;2022-11-15T08:22:18;12.40;99.90
30534;DHT22;17318;52.390;9.754;2022-11-15T08:24:44;12.40;99.90
30534;DHT22;17318;52.390;9.754;2022-11-15T08:27:09;12.50;99.90
30534;DHT22;17318;52.390;9.754;2022-11-15T08:29:42;12.50;99.90
30534;DHT22;17318;52.390;9.754;2022-11-15T08:32:08;12.70;99.90
30534;DHT22;17318;52.390;9.754;2022-11-15T08:34:34;12.80;99.90
30534;DHT22;17318;52.390;9.754;2022-11-15T08:37:00;12.90;99.90
30534;DHT22;17318;52.390;9.754;2022-11-15T08:39:26;13.00;99.90
30534;DHT22;17318;52.390;9.754;2022-11-15T08:41:51;13.10;99.90
30534;DHT22;17318;52.390;9.754;2022-11-15T08:44:17;13.10;99.90
30534;DHT22;17318;52.390;9.754;2022-11-15T08:46:45;13.20;99.90
30534;DHT22;17318;52.390;9.754;2022-11-15T08:49:11;13.20;99.90
30534;DHT22;17318;52.390;9.754;2022-11-15T08:51:36;13.30;99.90
30534;DHT22;17318;52.390;9.754;2022-11-15T08:54:02;13.30;99.90
30534;DHT22;17318;52.390;9.754;2022-11-15T08:56:28;13.30;99.90
30534;DHT22;17318;52.390;9.754;2022-11-15T08:58:53;13.30;99.90
30534;DHT22;17318;52.390;9.754;2022-11-15T09:01:20;13.40;99.90
30534;DHT22;17318;52.390;9.754;2022-11-15T09:03:46;13.40;99.90
30534;DHT22;17318;52.390;9.754;2022-11-15T09:06:12;13.50;99.90
30534;DHT22;17318;52.390;9.754;2022-11-15T09:08:38;13.50;99.90
30534;DHT22;17318;52.390;9.754;2022-11-15T09:11:05;13.50;99.90
30534;DHT22;17318;52.390;9.754;2022-11-15T09:13:32;13.50;99.90
30534;DHT22;17318;52.390;9.754;2022-11-15T09:15:59;13.50;99.90
30534;DHT22;17318;52.390;9.754;2022-11-15T09:18:24;13.60;99.90
30534;DHT22;17318;52.390;9.754;2022-11-15T09:20:51;13.60;99.90
30534;DHT22;17318;52.390;9.754;2022-11-15T09:23:16;13.70;99.90
30534;DHT22;17318;52.390;9.754;2022-11-15T09:25:42;13.70;99.90
30534;DHT22;17318;52.390;9.754;2022-11-15T09:28:08;13.80;99.90
30534;DHT22;17318;52.390;9.754;2022-11-15T09:30:33;13.80;99.90
30534;DHT22;17318;52.390;9.754;2022-11-15T09:33:09;13.90;99.90
30534;DHT22;17318;52.390;9.754;2022-11-15T09:35:35;13.90;99.90
30534;DHT22;17318;52.390;9.754;2022-11-15T09:38:02;14.00;99.90
30534;DHT22;17318;52.390;9.754;2022-11-15T09:40:30;14.10;99.90
30534;DHT22;17318;52.390;9.754;2022-11-15T09:43:14;14.10;99.70
30534;DHT22;17318;52.390;9.754;2022-11-15T09:51:23;14.20;99.60
30534;DHT22;17318;52.390;9.754;2022-11-15T09:54:01;14.30;99.50
30534;DHT22;17318;52.390;9.754;2022-11-15T09:56:35;14.30;99.30
30534;DHT22;17318;52.390;9.754;2022-11-15T10:04:21;14.40;99.30
30534;DHT22;17318;52.390;9.754;2022-11-15T10:12:14;14.50;99.20
30534;DHT22;17318;52.390;9.754;2022-11-15T10:14:41;14.60;99.00
30534;DHT22;17318;52.390;9.754;2022-11-15T10:17:29;14.60;98.90
30534;DHT22;17318;52.390;9.754;2022-11-15T10:22:48;14.80;99.00
30534;DHT22;17318;52.390;9.754;2022-11-15T10:25:21;14.80;98.80
30534;DHT22;17318;52.390;9.754;2022-11-15T10:28:01;14.90;98.90
30534;DHT22;17318;52.390;9.754;2022-11-15T10:30:38;15.00;98.90
30534;DHT22;17318;52.390;9.754;2022-11-15T10:41:17;15.60;98.60
30534;DHT22;17318;52.390;9.754;2022-11-15T10:43:44;15.90;98.20
30534;DHT22;17318;52.390;9.754;2022-11-15T10:46:21;16.50;98.40
30534;DHT22;17318;52.390;9.754;2022-11-15T10:48:48;16.70;97.30
30534;DHT22;17318;52.390;9.754;2022-11-15T10:51:27;17.30;97.70
30534;DHT22;17318;52.390;9.754;2022-11-15T10:53:58;18.30;97.80
30534;DHT22;17318;52.390;9.754;2022-11-15T10:56:26;19.20;96.80
30534;DHT22;17318;52.390;9.754;2022-11-15T10:58:56;19.80;94.20
30534;DHT22;17318;52.390;9.754;2022-11-15T11:01:24;20.40;94.80
30534;DHT22;17318;52.390;9.754;2022-11-15T11:04:02;20.80;93.50
30534;DHT22;17318;52.390;9.754;2022-11-15T11:06:28;21.60;93.00
30534;DHT22;17318;52.390;9.754;2022-11-15T11:09:01;21.90;92.30
30534;DHT22;17318;52.390;9.754;2022-11-15T11:11:48;21.70;90.70
30534;DHT22;17318;52.390;9.754;2022-11-15T11:14:25;20.70;90.30
30534;DHT22;17318;52.390;9.754;2022-11-15T11:25:08;19.30;92.10
30534;DHT22;17318;52.390;9.754;2022-11-15T11:41:29;18.70;92.20
30534;DHT22;17318;52.390;9.754;2022-11-15T11:46:56;18.50;92.40
30534;DHT22;17318;52.390;9.754;2022-11-15T11:50:05;18.50;93.00
30534;DHT22;17318;52.390;9.754;2022-11-15T11:55:26;18.40;92.90
30534;DHT22;17318;52.390;9.754;2022-11-15T11:58:04;18.30;92.90
30534;DHT22;17318;52.390;9.754;2022-11-15T12:00:35;18.20;92.90
30534;DHT22;17318;52.390;9.754;2022-11-15T12:06:22;18.00;93.10
30534;DHT22;17318;52.390;9.754;2022-11-15T12:11:43;17.70;92.80
30534;DHT22;17318;52.390;9.754;2022-11-15T12:14:25;17.60;93.20
30534;DHT22;17318;52.390;9.754;2022-11-15T12:16:51;17.60;93.30
30534;DHT22;17318;52.390;9.754;2022-11-15T12:19:17;17.40;93.30
30534;DHT22;17318;52.390;9.754;2022-11-15T12:24:23;17.20;93.80
30534;DHT22;17318;52.390;9.754;2022-11-15T12:26:56;17.20;93.70
30534;DHT22;17318;52.390;9.754;2022-11-15T12:29:27;17.10;93.80
30534;DHT22;17318;52.390;9.754;2022-11-15T12:31:55;17.10;94.00
30534;DHT22;17318;52.390;9.754;2022-11-15T12:36:53;16.90;93.90
30534;DHT22;17318;52.390;9.754;2022-11-15T12:39:19;16.90;94.00
30534;DHT22;17318;52.390;9.754;2022-11-15T12:47:21;16.70;94.30
30534;DHT22;17318;52.390;9.754;2022-11-15T12:49:48;16.60;94.70
30534;DHT22;17318;52.390;9.754;2022-11-15T12:52:15;16.50;94.50
30534;DHT22;17318;52.390;9.754;2022-11-15T13:02:35;16.50;94.80
30534;DHT22;17318;52.390;9.754;2022-11-15T13:22:49;16.50;94.80
30534;DHT22;17318;52.390;9.754;2022-11-15T13:31:47;16.50;94.90
30534;DHT22;17318;52.390;9.754;2022-11-15T13:33:47;16.60;95.00
30534;DHT22;17318;52.390;9.754;2022-11-15T13:36:15;16.50;94.90
30534;DHT22;17318;52.390;9.754;2022-11-15T13:38:44;16.60;94.80
30534;DHT22;17318;52.390;9.754;2022-11-15T13:41:25;16.50;94.90
30534;DHT22;17318;52.390;9.754;2022-11-15T13:43:52;16.50;94.90
30534;DHT22;17318;52.390;9.754;2022-11-15T13:48:47;16.50;95.10
30534;DHT22;17318;52.390;9.754;2022-11-15T13:51:18;16.40;95.10
30534;DHT22;17318;52.390;9.754;2022-11-15T13:53:52;16.40;95.20
30534;DHT22;17318;52.390;9.754;2022-11-15T13:56:19;16.40;95.20
30534;DHT22;17318;52.390;9.754;2022-11-15T13:58:46;16.30;95.40
30534;DHT22;17318;52.390;9.754;2022-11-15T14:01:17;16.30;95.20
30534;DHT22;17318;52.390;9.754;2022-11-15T14:03:58;16.30;95.10
30534;DHT22;17318;52.390;9.754;2022-11-15T14:06:27;16.30;95.30
30534;DHT22;17318;52.390;9.754;2022-11-15T14:11:34;16.20;95.10
30534;DHT22;17318;52.390;9.754;2022-11-15T14:16:44;16.10;95.20
30534;DHT22;17318;52.390;9.754;2022-11-15T14:19:13;16.10;95.20
30534;DHT22;17318;52.390;9.754;2022-11-15T14:27:42;16.00;95.40
30534;DHT22;17318;52.390;9.754;2022-11-15T14:30:17;15.90;95.50
30534;DHT22;17318;52.390;9.754;2022-11-15T14:32:44;16.00;95.60
30534;DHT22;17318;52.390;9.754;2022-11-15T14:35:22;15.90;95.60
30534;DHT22;17318;52.390;9.754;2022-11-15T14:37:49;15.90;95.60
30534;DHT22;17318;52.390;9.754;2022-11-15T14:40:20;15.90;95.70
30534;DHT22;17318;52.390;9.754;2022-11-15T14:42:47;15.80;95.60
30534;DHT22;17318;52.390;9.754;2022-11-15T14:45:16;15.80;95.60
30534;DHT22;17318;52.390;9.754;2022-11-15T14:47:43;15.80;95.70
30534;DHT22;17318;52.390;9.754;2022-11-15T14:50:17;15.80;95.70
30534;DHT22;17318;52.390;9.754;2022-11-15T14:52:43;15.80;95.70
30534;DHT22;17318;52.390;9.754;2022-11-15T14:55:29;15.70;95.70
30534;DHT22;17318;52.390;9.754;2022-11-15T14:57:57;15.70;95.70
30534;DHT22;17318;52.390;9.754;2022-11-15T15:00:23;15.70;95.80
30534;DHT22;17318;52.390;9.754;2022-11-15T15:02:52;15.70;95.80
30534;DHT22;17318;52.390;9.754;2022-11-15T15:05:19;15.60;95.80
30534;DHT22;17318;52.390;9.754;2022-11-15T15:07:45;15.60;96.00
30534;DHT22;17318;52.390;9.754;2022-11-15T15:10:11;15.60;96.00
30534;DHT22;17318;52.390;9.754;2022-11-15T15:12:37;15.60;96.00
30534;DHT22;17318;52.390;9.754;2022-11-15T15:15:18;15.60;96.00
30534;DHT22;17318;52.390;9.754;2022-11-15T15:17:45;15.60;96.10
30534;DHT22;17318;52.390;9.754;2022-11-15T15:20:11;15.50;96.10
30534;DHT22;17318;52.390;9.754;2022-11-15T15:22:37;15.60;96.20
30534;DHT22;17318;52.390;9.754;2022-11-15T15:25:34;15.60;96.20
30534;DHT22;17318;52.390;9.754;2022-11-15T15:28:01;15.60;96.20
30534;DHT22;17318;52.390;9.754;2022-11-15T15:30:28;15.60;96.20
30534;DHT22;17318;52.390;9.754;2022-11-15T15:32:55;15.50;96.20
30534;DHT22;17318;52.390;9.754;2022-11-15T15:35:21;15.50;96.20
30534;DHT22;17318;52.390;9.754;2022-11-15T15:37:49;15.50;96.20
30534;DHT22;17318;52.390;9.754;2022-11-15T15:40:21;15.50;96.30
30534;DHT22;17318;52.390;9.754;2022-11-15T15:42:48;15.50;96.30
30534;DHT22;17318;52.390;9.754;2022-11-15T15:45:15;15.50;96.30
30534;DHT22;17318;52.390;9.754;2022-11-15T15:47:41;15.50;96.20
30534;DHT22;17318;52.390;9.754;2022-11-15T15:50:25;15.50;96.20
30534;DHT22;17318;52.390;9.754;2022-11-15T15:52:53;15.40;96.20
30534;DHT22;17318;52.390;9.754;2022-11-15T15:55:27;15.40;96.20
30534;DHT22;17318;52.390;9.754;2022-11-15T15:57:54;15.40;96.20
30534;DHT22;17318;52.390;9.754;2022-11-15T16:00:22;15.40;96.20
30534;DHT22;17318;52.390;9.754;2022-11-15T16:02:49;15.40;96.20
30534;DHT22;17318;52.390;9.754;2022-11-15T16:05:15;15.40;96.20
30534;DHT22;17318;52.390;9.754;2022-11-15T16:07:41;15.40;96.30
30534;DHT22;17318;52.390;9.754;2022-11-15T16:10:24;15.40;96.30
30534;DHT22;17318;52.390;9.754;2022-11-15T16:12:53;15.40;96.30
30534;DHT22;17318;52.390;9.754;2022-11-15T16:15:21;15.30;96.40
30534;DHT22;17318;52.390;9.754;2022-11-15T16:17:50;15.30;96.50
30534;DHT22;17318;52.390;9.754;2022-11-15T16:22:55;15.20;96.80
30534;DHT22;17318;52.390;9.754;2022-11-15T16:25:20;15.30;96.80
30534;DHT22;17318;52.390;9.754;2022-11-15T16:27:46;15.20;96.90
30534;DHT22;17318;52.390;9.754;2022-11-15T16:30:15;15.20;96.90
30534;DHT22;17318;52.390;9.754;2022-11-15T16:32:41;15.20;97.10
30534;DHT22;17318;52.390;9.754;2022-11-15T16:35:16;15.20;97.10
30534;DHT22;17318;52.390;9.754;2022-11-15T16:37:43;15.20;97.20
30534;DHT22;17318;52.390;9.754;2022-11-15T16:40:16;15.20;97.30
30534;DHT22;17318;52.390;9.754;2022-11-15T16:42:42;15.20;97.20
30534;DHT22;17318;52.390;9.754;2022-11-15T16:45:11;15.20;97.40
30534;DHT22;17318;52.390;9.754;2022-11-15T16:47:39;15.20;97.40
30534;DHT22;17318;52.390;9.754;2022-11-15T16:50:05;15.20;97.50
30534;DHT22;17318;52.390;9.754;2022-11-15T16:52:30;15.10;97.60
30534;DHT22;17318;52.390;9.754;2022-11-15T16:54:56;15.10;97.70
30534;DHT22;17318;52.390;9.754;2022-11-15T16:57:22;15.10;97.70
30534;DHT22;17318;52.390;9.754;2022-11-15T16:59:47;15.10;97.80
30534;DHT22;17318;52.390;9.754;2022-11-15T17:02:13;15.00;97.80
30534;DHT22;17318;52.390;9.754;2022-11-15T17:04:39;15.00;97.90
30534;DHT22;17318;52.390;9.754;2022-11-15T17:07:05;15.00;97.90
30534;DHT22;17318;52.390;9.754;2022-11-15T17:09:31;15.00;97.90
30534;DHT22;17318;52.390;9.754;2022-11-15T17:11:57;14.90;98.00
30534;DHT22;17318;52.390;9.754;2022-11-15T17:14:23;14.90;98.10
30534;DHT22;17318;52.390;9.754;2022-11-15T17:16:48;14.80;98.20
30534;DHT22;17318;52.390;9.754;2022-11-15T17:19:17;14.80;98.20
30534;DHT22;17318;52.390;9.754;2022-11-15T17:21:44;14.80;98.20
30534;DHT22;17318;52.390;9.754;2022-11-15T17:24:10;14.80;98.20
30534;DHT22;17318;52.390;9.754;2022-11-15T17:26:37;14.80;98.60
30534;DHT22;17318;52.390;9.754;2022-11-15T17:29:03;14.80;98.50
30534;DHT22;17318;52.390;9.754;2022-11-15T17:31:33;14.80;98.50
30534;DHT22;17318;52.390;9.754;2022-11-15T17:34:03;14.70;98.50
30534;DHT22;17318;52.390;9.754;2022-11-15T17:36:29;14.70;98.50
30534;DHT22;17318;52.390;9.754;2022-11-15T17:38:55;14.80;98.60
30534;DHT22;17318;52.390;9.754;2022-11-15T17:41:21;14.70;98.60
30534;DHT22;17318;52.390;9.754;2022-11-15T17:43:47;14.70;98.90
30534;DHT22;17318;52.390;9.754;2022-11-15T17:46:16;14.60;98.70
30534;DHT22;17318;52.390;9.754;2022-11-15T17:48:43;14.60;98.60
30534;DHT22;17318;52.390;9.754;2022-11-15T17:51:14;14.60;98.60
30534;DHT22;17318;52.390;9.754;2022-11-15T17:53:42;14.50;98.70
30534;DHT22;17318;52.390;9.754;2022-11-15T17:56:10;14.60;98.90
30534;DHT22;17318;52.390;9.754;2022-11-15T17:58:36;14.60;98.80
30534;DHT22;17318;52.390;9.754;2022-11-15T18:03:37;14.60;98.80
30534;DHT22;17318;52.390;9.754;2022-11-15T18:06:07;14.50;98.90
30534;DHT22;17318;52.390;9.754;2022-11-15T18:08:37;14.50;98.80
30534;DHT22;17318;52.390;9.754;2022-11-15T18:11:11;14.50;98.80